createdAt,value
2023-07-27T00:01:14.412Z,20.56
2023-07-27T00:03:43.458Z,20.45
2023-07-27T00:06:13.417Z,20.43
2023-07-27T00:08:42.341Z,20.36
2023-07-27T00:11:11.206Z,20.28
2023-07-27T00:13:42.576Z,20.22
2023-07-27T00:16:15.621Z,20.17
2023-07-27T00:18:44.575Z,20.05
2023-07-27T00:21:16.786Z,19.88
2023-07-27T00:23:46.752Z,20.06
2023-07-27T00:26:15.982Z,20.04
2023-07-27T00:28:46.327Z,20.03
2023-07-27T00:31:16.304Z,19.98
2023-07-27T00:33:46.230Z,19.86
2023-07-27T00:36:16.533Z,19.76
2023-07-27T00:38:48.240Z,19.76
2023-07-27T00:41:18.280Z,19.78
2023-07-27T00:43:48.768Z,19.81
2023-07-27T00:46:19.022Z,19.77
2023-07-27T00:48:48.169Z,19.78
2023-07-27T00:51:18.154Z,19.78
2023-07-27T00:53:47.611Z,19.79
2023-07-27T00:56:17.361Z,19.81
2023-07-27T00:58:48.932Z,19.79
2023-07-27T01:01:19.573Z,19.83
2023-07-27T01:03:49.946Z,19.88
2023-07-27T01:06:20.105Z,19.95
2023-07-27T01:08:50.236Z,19.86
2023-07-27T01:11:26.806Z,19.75
2023-07-27T01:14:07.244Z,19.63
2023-07-27T01:16:42.034Z,19.70
2023-07-27T01:19:28.795Z,19.66
2023-07-27T01:22:18.604Z,19.55
2023-07-27T01:25:18.721Z,19.43
2023-07-27T01:27:58.890Z,19.22
2023-07-27T01:30:59.348Z,19.38
2023-07-27T01:33:40.330Z,19.20
2023-07-27T01:36:13.609Z,19.38
2023-07-27T01:38:52.852Z,19.36
2023-07-27T01:41:25.045Z,19.28
2023-07-27T01:43:59.108Z,19.20
2023-07-27T01:46:33.424Z,19.20
2023-07-27T01:49:05.373Z,19.14
2023-07-27T01:51:36.220Z,19.07
2023-07-27T01:54:11.048Z,18.99
2023-07-27T01:56:40.297Z,18.04
2023-07-27T01:59:10.258Z,18.76
2023-07-27T02:01:44.759Z,18.76
2023-07-27T02:04:16.600Z,18.71
2023-07-27T02:06:52.084Z,18.67
2023-07-27T02:09:22.429Z,18.60
2023-07-27T02:11:58.442Z,18.54
2023-07-27T02:14:33.120Z,18.35
2023-07-27T02:17:14.794Z,18.01
2023-07-27T02:19:46.911Z,18.39
2023-07-27T02:22:18.242Z,18.31
2023-07-27T02:24:47.598Z,18.25
2023-07-27T02:27:17.798Z,18.17
2023-07-27T02:29:49.048Z,18.13
2023-07-27T02:32:20.577Z,18.29
2023-07-27T02:34:49.629Z,18.40
2023-07-27T02:37:25.771Z,18.42
2023-07-27T02:40:23.188Z,18.28
2023-07-27T02:42:57.289Z,18.21
2023-07-27T02:45:26.385Z,18.14
2023-07-27T02:48:03.830Z,18.13
2023-07-27T02:50:33.450Z,18.11
2023-07-27T02:53:09.291Z,18.20
2023-07-27T02:55:44.591Z,18.18
2023-07-27T02:58:13.656Z,18.03
2023-07-27T03:00:42.783Z,18.11
2023-07-27T03:03:15.286Z,18.13
2023-07-27T03:05:45.626Z,18.07
2023-07-27T03:08:19.209Z,17.98
2023-07-27T03:10:51.360Z,17.89
2023-07-27T03:13:48.833Z,17.69
2023-07-27T03:16:19.710Z,17.60
2023-07-27T03:18:52.068Z,17.51
2023-07-27T03:21:21.928Z,17.32
2023-07-27T03:23:51.511Z,17.52
2023-07-27T03:26:22.697Z,17.54
2023-07-27T03:28:51.474Z,17.50
2023-07-27T03:31:25.298Z,17.42
2023-07-27T03:33:56.959Z,17.46
2023-07-27T03:36:26.557Z,17.40
2023-07-27T03:38:57.719Z,17.37
2023-07-27T03:41:28.639Z,17.34
2023-07-27T03:43:58.022Z,17.29
2023-07-27T03:46:26.899Z,17.20
2023-07-27T03:48:57.702Z,17.18
2023-07-27T03:51:26.677Z,17.23
2023-07-27T03:54:00.187Z,17.31
2023-07-27T03:56:39.203Z,17.26
2023-07-27T03:59:08.373Z,17.19
2023-07-27T04:01:39.187Z,17.18
2023-07-27T04:04:13.760Z,17.12
2023-07-27T04:06:43.723Z,17.02
2023-07-27T04:09:13.636Z,16.95
2023-07-27T04:11:50.503Z,16.86
2023-07-27T04:14:33.525Z,16.68
2023-07-27T04:17:04.400Z,16.69
2023-07-27T04:19:37.446Z,16.69
2023-07-27T04:22:06.801Z,16.65
2023-07-27T04:24:36.800Z,16.62
2023-07-27T04:27:11.815Z,16.60
2023-07-27T04:29:41.756Z,16.59
2023-07-27T04:32:11.027Z,16.57
2023-07-27T04:34:43.242Z,16.54
2023-07-27T04:37:12.141Z,16.45
2023-07-27T04:39:42.910Z,16.40
2023-07-27T04:42:21.369Z,16.35
2023-07-27T04:44:52.304Z,16.34
2023-07-27T04:47:25.067Z,16.37
2023-07-27T04:49:56.464Z,16.37
2023-07-27T04:52:27.287Z,16.44
2023-07-27T04:54:56.084Z,16.53
2023-07-27T04:57:24.975Z,16.57
2023-07-27T04:59:53.898Z,16.65
2023-07-27T05:02:22.836Z,16.68
2023-07-27T05:04:52.869Z,16.69
2023-07-27T05:07:23.648Z,16.70
2023-07-27T05:09:52.425Z,16.75
2023-07-27T05:12:21.957Z,16.80
2023-07-27T05:14:52.187Z,16.87
2023-07-27T05:17:21.034Z,17.01
2023-07-27T05:19:50.100Z,17.15
2023-07-27T05:22:18.920Z,17.36
2023-07-27T05:24:49.358Z,17.59
2023-07-27T05:27:18.104Z,17.70
2023-07-27T05:29:46.919Z,17.77
2023-07-27T05:32:15.824Z,17.85
2023-07-27T05:34:45.593Z,17.96
2023-07-27T05:37:15.043Z,18.08
2023-07-27T05:39:43.973Z,18.17
2023-07-27T05:42:14.227Z,18.45
2023-07-27T05:44:43.983Z,18.83
2023-07-27T05:47:12.946Z,19.25
2023-07-27T05:49:41.886Z,19.52
2023-07-27T05:52:10.797Z,19.66
2023-07-27T05:54:39.612Z,19.71
2023-07-27T05:57:08.380Z,19.78
2023-07-27T05:59:40.188Z,19.91
2023-07-27T06:02:10.684Z,20.05
2023-07-27T06:04:39.514Z,20.30
2023-07-27T06:07:08.706Z,20.55
2023-07-27T06:09:38.251Z,20.86
2023-07-27T06:12:12.862Z,21.27
2023-07-27T06:14:43.265Z,21.95
2023-07-27T06:17:12.027Z,22.74
2023-07-27T06:19:40.659Z,23.51
2023-07-27T06:22:09.386Z,24.30
2023-07-27T06:24:38.227Z,24.95
2023-07-27T06:27:08.246Z,25.56
2023-07-27T06:29:37.082Z,26.10
2023-07-27T06:32:08.306Z,26.69
2023-07-27T06:34:37.093Z,27.15
2023-07-27T06:37:07.175Z,27.61
2023-07-27T06:39:36.024Z,27.96
2023-07-27T06:42:04.994Z,28.38
2023-07-27T06:44:35.743Z,28.87
2023-07-27T06:47:06.049Z,29.43
2023-07-27T06:49:37.488Z,29.98
2023-07-27T06:52:10.474Z,30.31
2023-07-27T06:54:41.083Z,30.57
2023-07-27T06:57:11.594Z,30.83
2023-07-27T06:59:40.361Z,31.04
2023-07-27T07:02:09.426Z,31.44
2023-07-27T07:04:40.666Z,31.85
2023-07-27T07:07:10.183Z,32.14
2023-07-27T07:09:38.950Z,32.39
2023-07-27T07:12:08.306Z,32.67
2023-07-27T07:14:37.195Z,32.62
2023-07-27T07:17:07.332Z,32.74
2023-07-27T07:19:36.084Z,32.80
2023-07-27T07:22:07.278Z,32.92
2023-07-27T07:24:36.102Z,32.79
2023-07-27T07:27:05.237Z,33.08
2023-07-27T07:29:34.050Z,33.29
2023-07-27T07:32:02.853Z,33.41
2023-07-27T07:34:34.982Z,33.28
2023-07-27T07:37:05.758Z,33.55
2023-07-27T07:39:34.544Z,33.58
2023-07-27T07:42:03.376Z,33.55
2023-07-27T07:44:32.230Z,33.54
2023-07-27T07:47:01.013Z,33.72
2023-07-27T07:49:29.813Z,33.79
2023-07-27T07:51:58.590Z,33.76
2023-07-27T07:54:30.234Z,33.89
2023-07-27T07:56:59.088Z,33.85
2023-07-27T07:59:27.852Z,33.75
2023-07-27T08:01:56.782Z,33.54
2023-07-27T08:04:25.582Z,33.45
2023-07-27T08:06:54.349Z,33.40
2023-07-27T08:09:23.137Z,33.52
2023-07-27T08:11:53.822Z,33.43
2023-07-27T08:14:22.949Z,33.25
2023-07-27T08:16:51.791Z,33.10
2023-07-27T08:19:20.740Z,32.97
2023-07-27T08:21:49.503Z,32.72
2023-07-27T08:24:18.957Z,32.58
2023-07-27T08:26:48.612Z,32.44
2023-07-27T08:29:18.861Z,32.34
2023-07-27T08:31:47.692Z,32.23
2023-07-27T08:34:16.481Z,32.14
2023-07-27T08:36:48.651Z,32.13
2023-07-27T08:39:17.783Z,32.12
2023-07-27T08:41:46.759Z,32.10
2023-07-27T08:44:16.829Z,31.87
2023-07-27T08:46:48.296Z,32.12
2023-07-27T08:49:17.749Z,32.03
2023-07-27T08:51:47.153Z,31.84
2023-07-27T08:54:16.135Z,31.72
2023-07-27T08:56:44.892Z,31.56
2023-07-27T08:59:14.120Z,31.57
2023-07-27T09:01:43.025Z,31.56
2023-07-27T09:04:14.234Z,31.49
2023-07-27T09:06:46.182Z,31.50
2023-07-27T09:09:19.643Z,31.44
2023-07-27T09:11:48.621Z,31.33
2023-07-27T09:14:19.910Z,31.36
2023-07-27T09:16:50.493Z,31.37
2023-07-27T09:19:21.453Z,31.36
2023-07-27T09:21:51.719Z,31.44
2023-07-27T09:24:20.660Z,31.41
2023-07-27T09:26:51.047Z,31.08
2023-07-27T09:29:21.905Z,31.43
2023-07-27T09:31:52.020Z,31.53
2023-07-27T09:34:23.300Z,31.63
2023-07-27T09:36:53.700Z,31.79
2023-07-27T09:39:22.777Z,31.93
2023-07-27T09:41:53.351Z,32.06
2023-07-27T09:44:22.847Z,32.17
2023-07-27T09:46:51.659Z,32.34
2023-07-27T09:49:22.477Z,32.42
2023-07-27T09:51:53.104Z,32.50
2023-07-27T09:54:23.696Z,32.65
2023-07-27T09:56:53.640Z,32.79
2023-07-27T09:59:25.685Z,32.71
2023-07-27T10:01:57.826Z,32.65
2023-07-27T10:04:28.119Z,32.50
2023-07-27T10:06:59.943Z,32.35
2023-07-27T10:09:28.646Z,32.41
2023-07-27T10:11:58.396Z,32.51
2023-07-27T10:14:28.549Z,32.84
2023-07-27T10:17:02.320Z,33.01
2023-07-27T10:19:49.306Z,33.02
2023-07-27T10:22:21.165Z,32.81
2023-07-27T10:24:54.648Z,32.82
2023-07-27T10:27:26.156Z,32.76
2023-07-27T10:30:17.822Z,32.62
2023-07-27T10:33:17.028Z,32.76
2023-07-27T10:36:06.309Z,33.01
2023-07-27T10:38:35.519Z,33.19
2023-07-27T10:41:17.169Z,33.31
2023-07-27T10:44:19.617Z,33.31
2023-07-27T10:46:57.777Z,33.00
2023-07-27T10:49:28.089Z,33.42
2023-07-27T10:52:00.332Z,33.50
2023-07-27T10:54:29.629Z,33.58
2023-07-27T10:56:59.299Z,33.65
2023-07-27T10:59:30.877Z,33.67
2023-07-27T11:01:59.919Z,33.56
2023-07-27T11:04:29.141Z,33.64
2023-07-27T11:06:59.375Z,33.61
2023-07-27T11:09:34.303Z,33.69
2023-07-27T11:12:03.539Z,33.72
2023-07-27T11:14:32.642Z,33.78
2023-07-27T11:17:01.724Z,33.92
2023-07-27T11:19:30.566Z,34.06
2023-07-27T11:22:01.740Z,33.94
2023-07-27T11:24:31.945Z,33.99
2023-07-27T11:27:01.736Z,34.12
2023-07-27T11:29:30.637Z,34.23
2023-07-27T11:32:01.336Z,34.21
2023-07-27T11:34:32.268Z,34.32
2023-07-27T11:37:03.742Z,34.34
2023-07-27T11:39:33.756Z,34.37
2023-07-27T11:42:11.824Z,34.40
2023-07-27T11:44:41.612Z,34.51
2023-07-27T11:47:10.532Z,34.53
2023-07-27T11:49:40.021Z,34.44
2023-07-27T11:52:11.360Z,34.27
2023-07-27T11:54:42.574Z,34.10
2023-07-27T11:57:17.275Z,34.25
2023-07-27T12:00:01.164Z,34.25
2023-07-27T12:02:34.629Z,34.20
2023-07-27T12:05:03.942Z,34.14
2023-07-27T12:12:49.916Z,33.77
2023-07-27T12:15:30.404Z,33.75
2023-07-27T12:18:00.518Z,33.69
2023-07-27T12:30:44.097Z,33.78
2023-07-27T12:33:13.413Z,33.79
2023-07-27T12:35:42.401Z,33.85
2023-07-27T12:43:17.197Z,33.69
2023-07-27T12:45:46.040Z,33.70
2023-07-27T12:48:14.950Z,33.66
2023-07-27T12:50:43.737Z,33.62
2023-07-27T12:53:15.046Z,33.47
2023-07-27T12:55:44.015Z,33.32
2023-07-27T12:58:12.855Z,33.23
2023-07-27T13:00:41.821Z,33.29
2023-07-27T13:03:12.677Z,33.32
2023-07-27T13:05:41.689Z,33.33
2023-07-27T13:08:10.453Z,33.35
2023-07-27T13:10:40.862Z,33.24
2023-07-27T13:13:09.730Z,33.22
2023-07-27T13:15:38.878Z,33.15
2023-07-27T13:18:07.904Z,33.04
2023-07-27T13:20:37.722Z,32.92
2023-07-27T13:23:06.884Z,32.80
2023-07-27T13:25:38.529Z,32.76
2023-07-27T13:28:08.986Z,32.59
2023-07-27T13:30:39.075Z,32.55
2023-07-27T13:33:08.106Z,32.59
2023-07-27T13:35:39.194Z,32.61
2023-07-27T13:38:08.155Z,32.57
2023-07-27T13:40:37.079Z,32.64
2023-07-27T13:43:05.908Z,32.68
2023-07-27T13:45:36.127Z,32.81
2023-07-27T13:48:09.810Z,32.74
2023-07-27T13:50:39.449Z,32.60
2023-07-27T13:53:11.394Z,32.52
2023-07-27T13:55:40.332Z,32.45
2023-07-27T13:58:09.332Z,32.35
2023-07-27T14:00:39.868Z,32.11
2023-07-27T14:03:08.859Z,31.88
2023-07-27T14:05:38.136Z,31.85
2023-07-27T14:08:07.549Z,31.86
2023-07-27T14:10:36.464Z,32.03
2023-07-27T14:13:06.103Z,32.15
2023-07-27T14:15:35.044Z,32.19
2023-07-27T14:18:05.591Z,32.16
2023-07-27T14:20:35.728Z,32.10
2023-07-27T14:23:04.789Z,32.06
2023-07-27T14:25:34.820Z,32.07
2023-07-27T14:28:03.815Z,32.09
2023-07-27T14:30:32.792Z,32.12
2023-07-27T14:33:01.656Z,32.20
2023-07-27T14:35:31.938Z,32.18
2023-07-27T14:38:00.839Z,32.16
2023-07-27T14:43:01.392Z,32.23
2023-07-27T14:45:30.870Z,32.24
2023-07-27T14:47:59.837Z,32.21
2023-07-27T14:53:03.119Z,32.17
2023-07-27T14:55:31.954Z,32.13
2023-07-27T14:58:00.872Z,32.06
2023-07-27T15:05:33.652Z,31.79
2023-07-27T15:08:05.037Z,31.74
2023-07-27T15:10:37.896Z,31.70
2023-07-27T15:13:08.209Z,31.48
2023-07-27T15:15:38.068Z,31.28
2023-07-27T15:18:08.948Z,31.25
2023-07-27T15:20:42.104Z,31.20
2023-07-27T15:23:13.549Z,31.13
2023-07-27T15:25:42.493Z,31.11
2023-07-27T15:28:11.313Z,31.14
2023-07-27T15:30:40.412Z,31.12
2023-07-27T15:33:09.393Z,31.00
2023-07-27T15:35:39.550Z,30.93
2023-07-27T15:38:08.477Z,30.82
2023-07-27T15:40:38.821Z,30.81
2023-07-27T15:43:08.229Z,30.82
2023-07-27T15:45:37.102Z,30.81
2023-07-27T15:48:07.750Z,30.80
2023-07-27T15:50:36.779Z,30.73
2023-07-27T15:53:06.595Z,30.72
2023-07-27T15:55:38.757Z,30.69
2023-07-27T15:58:08.960Z,30.52
2023-07-27T16:00:40.784Z,30.46
2023-07-27T16:03:12.718Z,30.43
2023-07-27T16:05:41.656Z,30.29
2023-07-27T16:08:10.382Z,30.32
2023-07-27T16:10:43.858Z,30.32
2023-07-27T16:13:13.206Z,30.22
2023-07-27T16:15:42.041Z,30.18
2023-07-27T16:18:12.615Z,30.21
2023-07-27T16:20:44.414Z,30.17
2023-07-27T16:23:14.793Z,30.10
2023-07-27T16:25:45.787Z,30.03
2023-07-27T16:28:15.679Z,29.91
2023-07-27T16:30:45.289Z,29.79
2023-07-27T16:33:15.204Z,29.73
2023-07-27T16:35:44.112Z,29.68
2023-07-27T16:38:12.915Z,29.63
2023-07-27T16:40:42.064Z,29.62
2023-07-27T16:43:12.315Z,29.69
2023-07-27T16:45:41.197Z,29.72
2023-07-27T16:48:10.305Z,29.68
2023-07-27T16:50:39.146Z,29.61
2023-07-27T16:53:08.018Z,29.59
2023-07-27T16:55:38.193Z,29.42
2023-07-27T16:58:07.157Z,29.39
2023-07-27T17:00:38.641Z,29.32
2023-07-27T17:03:07.786Z,29.24
2023-07-27T17:05:40.314Z,29.12
2023-07-27T17:08:10.887Z,28.84
2023-07-27T17:10:39.867Z,28.88
2023-07-27T17:13:08.800Z,28.72
2023-07-27T17:15:39.761Z,28.54
2023-07-27T17:18:08.708Z,28.37
2023-07-27T17:20:37.867Z,28.24
2023-07-27T17:23:06.833Z,28.11
2023-07-27T17:25:35.833Z,27.98
2023-07-27T17:28:04.739Z,27.87
2023-07-27T17:30:33.703Z,27.73
2023-07-27T17:33:04.123Z,27.70
2023-07-27T17:35:33.056Z,27.67
2023-07-27T17:38:01.950Z,27.64
2023-07-27T17:40:30.790Z,27.65
2023-07-27T17:42:59.662Z,27.64
2023-07-27T17:45:28.441Z,27.66
2023-07-27T17:47:57.288Z,27.50
2023-07-27T17:50:27.648Z,27.57
2023-07-27T17:52:57.505Z,27.53
2023-07-27T17:55:26.426Z,27.46
2023-07-27T17:57:56.050Z,27.36
2023-07-27T18:00:25.045Z,27.32
2023-07-27T18:02:55.137Z,27.30
2023-07-27T18:05:24.068Z,27.19
2023-07-27T18:07:54.412Z,27.12
2023-07-27T18:10:23.311Z,27.02
2023-07-27T18:12:52.134Z,27.00
2023-07-27T18:15:21.103Z,26.97
2023-07-27T18:17:50.008Z,26.91
2023-07-27T18:20:19.026Z,26.86
2023-07-27T18:22:47.925Z,26.80
2023-07-27T18:25:18.296Z,26.78
2023-07-27T18:27:47.212Z,26.75
2023-07-27T18:30:16.282Z,26.65
2023-07-27T18:32:45.275Z,26.63
2023-07-27T18:35:16.220Z,26.62
2023-07-27T18:37:45.310Z,26.63
2023-07-27T18:40:15.378Z,26.60
2023-07-27T18:42:46.790Z,26.56
2023-07-27T18:45:15.848Z,26.46
2023-07-27T18:47:45.260Z,26.40
2023-07-27T18:50:14.064Z,26.35
2023-07-27T18:52:43.984Z,26.26
2023-07-27T18:55:12.808Z,26.28
2023-07-27T18:57:41.678Z,26.19
2023-07-27T19:00:13.752Z,26.14
2023-07-27T19:02:42.753Z,26.09
2023-07-27T19:05:11.605Z,26.02
2023-07-27T19:07:40.405Z,25.97
2023-07-27T19:10:10.889Z,25.89
2023-07-27T19:12:39.820Z,25.84
2023-07-27T19:15:10.274Z,25.79
2023-07-27T19:17:40.586Z,25.74
2023-07-27T19:20:11.198Z,25.66
2023-07-27T19:22:40.068Z,25.77
2023-07-27T19:25:10.678Z,25.78
2023-07-27T19:27:39.680Z,25.73
2023-07-27T19:30:09.735Z,25.70
2023-07-27T19:32:40.746Z,25.66
2023-07-27T19:35:10.505Z,25.61
2023-07-27T19:37:39.338Z,25.59
2023-07-27T19:40:10.111Z,25.58
2023-07-27T19:42:39.004Z,25.60
2023-07-27T19:45:08.951Z,25.63
2023-07-27T19:47:37.821Z,25.63
2023-07-27T19:50:18.558Z,25.67
2023-07-27T19:52:51.382Z,25.60
2023-07-27T19:55:21.349Z,25.60
2023-07-27T19:57:51.201Z,25.61
2023-07-27T20:00:20.312Z,25.64
2023-07-27T20:02:49.793Z,25.66
2023-07-27T20:05:20.119Z,25.64
2023-07-27T20:07:49.266Z,25.68
2023-07-27T20:10:18.130Z,25.70
2023-07-27T20:12:46.886Z,25.71
2023-07-27T20:15:15.712Z,25.68
2023-07-27T20:17:45.662Z,25.66
2023-07-27T20:20:15.073Z,25.49
2023-07-27T20:22:45.323Z,25.62
2023-07-27T20:25:14.672Z,25.62
2023-07-27T20:27:43.654Z,25.58
2023-07-27T20:30:13.039Z,25.57
2023-07-27T20:32:43.595Z,25.57
2023-07-27T20:35:12.977Z,25.57
2023-07-27T20:37:41.818Z,25.48
2023-07-27T20:40:13.254Z,25.44
2023-07-27T20:42:42.135Z,25.45
2023-07-27T20:45:11.577Z,25.48
2023-07-27T20:47:40.496Z,25.45
2023-07-27T20:50:12.014Z,25.46
2023-07-27T20:52:40.892Z,25.44
2023-07-27T20:55:11.813Z,25.42
2023-07-27T20:57:40.665Z,25.41
2023-07-27T21:00:10.525Z,25.33
2023-07-27T21:02:39.489Z,25.24
2023-07-27T21:05:10.367Z,25.17
2023-07-27T21:07:39.282Z,25.16
2023-07-27T21:10:09.700Z,25.17
2023-07-27T21:12:39.993Z,25.12
2023-07-27T21:15:09.791Z,25.06
2023-07-27T21:17:38.732Z,25.13
2023-07-27T21:20:10.596Z,25.16
2023-07-27T21:22:39.447Z,25.19
2023-07-27T21:25:08.808Z,25.22
2023-07-27T21:27:37.616Z,25.20
2023-07-27T21:30:09.316Z,25.23
2023-07-27T21:32:38.234Z,25.23
2023-07-27T21:35:08.051Z,25.16
2023-07-27T21:37:37.147Z,25.13
2023-07-27T21:40:13.567Z,25.10
2023-07-27T21:42:43.157Z,25.09
2023-07-27T21:45:13.585Z,25.14
2023-07-27T21:47:42.557Z,25.17
2023-07-27T21:50:12.299Z,25.20
2023-07-27T21:52:41.152Z,25.20
2023-07-27T21:55:10.877Z,25.19
2023-07-27T21:57:39.656Z,25.14
2023-07-27T22:00:10.454Z,25.13
2023-07-27T22:02:40.717Z,25.18
2023-07-27T22:05:09.753Z,25.14
2023-07-27T22:07:38.686Z,25.14
2023-07-27T22:10:08.807Z,25.06
2023-07-27T22:12:39.103Z,24.98
2023-07-27T22:15:09.061Z,24.91
2023-07-27T22:17:37.887Z,24.81
2023-07-27T22:20:10.669Z,24.74
2023-07-27T22:22:39.536Z,24.63
2023-07-27T22:25:09.788Z,24.57
2023-07-27T22:27:38.779Z,24.52
2023-07-27T22:30:08.740Z,24.49
2023-07-27T22:32:37.792Z,24.47
2023-07-27T22:35:08.481Z,24.37
2023-07-27T22:37:38.286Z,24.29
2023-07-27T22:40:08.205Z,24.28
2023-07-27T22:42:38.187Z,24.28
2023-07-27T22:45:07.726Z,24.29
2023-07-27T22:47:36.706Z,24.32
2023-07-27T22:50:08.013Z,24.32
2023-07-27T22:52:38.387Z,24.32
2023-07-27T22:55:08.164Z,24.29
2023-07-27T22:57:40.751Z,24.32
2023-07-27T23:00:10.971Z,24.32
2023-07-27T23:02:39.903Z,24.33
2023-07-27T23:05:11.203Z,24.20
2023-07-27T23:07:41.680Z,24.40
2023-07-27T23:10:10.978Z,24.38
2023-07-27T23:12:39.760Z,24.36
2023-07-27T23:15:09.283Z,24.39
2023-07-27T23:17:38.256Z,24.43
2023-07-27T23:20:09.189Z,24.44
2023-07-27T23:22:38.102Z,24.44
2023-07-27T23:25:09.172Z,24.49
2023-07-27T23:27:38.632Z,24.50
2023-07-27T23:30:08.457Z,24.54
2023-07-27T23:32:37.682Z,24.57
2023-07-27T23:35:07.296Z,24.60
2023-07-27T23:37:36.044Z,24.61
2023-07-27T23:40:08.458Z,24.62
2023-07-27T23:42:38.208Z,24.61
2023-07-27T23:45:08.365Z,24.59
2023-07-27T23:47:38.323Z,24.60
2023-07-27T23:50:07.995Z,24.59
2023-07-27T23:52:36.881Z,24.54
2023-07-27T23:55:07.805Z,24.57
2023-07-27T23:57:36.654Z,24.57
